Country
Station

 

Weather  for  Madrid/Getafe  -  Spain    Spain

  
25 °C (77 °F)
    
 
 

Current METAR for Madrid/Getafe is :

LEGT 021000Z VRB03KT CAVOK 25/13 Q1017

 

This is a report for Madrid/Getafe - Spain.
 
The report was made one hour and 3 minutes ago, at 10:00 UTC .
The wind was blowing at a speed of 1.5 meters per second (3.5 miles per hour) from variable directions.
 
The temperature was 25 °C (77 °F), with a dew-point at 13 °C (55 °F).
The temperature felt like 26 °C (79 °F).
 
The atmospheric pressure was 1017 hPa (30.03 inHg).
The relative humidity was 47.3%.
 
There were no clouds below 1500 meter (5000 feet) and no cumulonimbus clouds.
 
The overall visibility was greater than 10 kilometers (6.2 miles).
 

 
 
 
 

Country :   A   B   C   D   E   F   G   H   I   J   K   L   M   N   O   P   Q   R   S   T   U   V   W   Y   Z

 

Site Info  |  Disclaimer  |  Credits  |  Privacy
Contact us  |  Add to favorites
© 2013-2020 METARs - All rights reserved